Time;durP1;ratioP1;P1;durP2;ratioP2;P2;SDS_P1;SDS_P2;PMS_P1;PMS_P2;Temp;Humidity;BMP_temperature;BMP_pressure;BME280_temperature;BME280_humidity;BME280_pressure;Samples;Min_cycle;Max_cycle;Signal;HPM_P1;HPM_P2
2021/09/08 00:01:22;;;;;;;40.70;26.65;;;;;;;;;;5089203;28;20031;-71
2021/09/08 00:03:48;;;;;;;40.17;25.45;;;;;;;;;;5109568;28;20028;-71
2021/09/08 00:06:14;;;;;;;38.45;25.70;;;;;;;;;;5109016;28;20118;-71
2021/09/08 00:08:40;;;;;;;40.58;25.58;;;;;;;;;;5110231;28;20092;-71
2021/09/08 00:11:06;;;;;;;39.78;25.92;;;;;;;;;;5105005;28;20031;-71
2021/09/08 00:13:32;;;;;;;42.03;26.42;;;;;;;;;;5110041;28;20110;-71
2021/09/08 00:15:58;;;;;;;40.50;26.77;;;;;;;;;;5103526;28;20024;-71
2021/09/08 00:18:24;;;;;;;42.92;28.63;;;;;;;;;;5109005;28;20072;-71
2021/09/08 00:20:50;;;;;;;41.13;26.55;;;;;;;;;;5100105;28;20020;-71
2021/09/08 00:23:16;;;;;;;40.72;27.35;;;;;;;;;;5110383;28;20110;-71
2021/09/08 00:25:42;;;;;;;42.80;27.15;;;;;;;;;;5097263;28;20020;-71
2021/09/08 00:28:08;;;;;;;42.42;27.42;;;;;;;;;;5109805;28;20027;-71
2021/09/08 00:30:35;;;;;;;39.55;27.90;;;;;;;;;;5109670;28;20015;-71
2021/09/08 00:33:01;;;;;;;41.42;28.13;;;;;;;;;;5099014;28;20028;-71
2021/09/08 00:35:27;;;;;;;43.03;27.65;;;;;;;;;;5095434;28;20027;-71
2021/09/08 00:37:53;;;;;;;39.72;26.30;;;;;;;;;;5109696;28;20019;-71
2021/09/08 00:40:19;;;;;;;41.80;27.67;;;;;;;;;;5109878;28;20088;-71
2021/09/08 00:42:45;;;;;;;45.17;28.35;;;;;;;;;;5109245;28;20027;-71
2021/09/08 00:45:13;;;;;;;41.95;27.25;;;;;;;;;;5100232;28;20528;-71
2021/09/08 00:47:39;;;;;;;40.97;26.50;;;;;;;;;;5087633;28;20022;-71
2021/09/08 00:50:05;;;;;;;44.08;27.17;;;;;;;;;;5109279;28;20040;-71
2021/09/08 00:52:31;;;;;;;43.05;26.75;;;;;;;;;;5091838;28;20416;-70
2021/09/08 00:54:58;;;;;;;45.15;26.90;;;;;;;;;;5087326;28;20046;-71
2021/09/08 00:57:26;;;;;;;40.25;26.70;;;;;;;;;;5089815;28;20176;-71
2021/09/08 00:59:52;;;;;;;38.90;26.50;;;;;;;;;;5108945;28;20102;-71
2021/09/08 01:02:18;;;;;;;41.00;26.88;;;;;;;;;;5105842;28;20619;-71
2021/09/08 01:04:45;;;;;;;38.40;25.25;;;;;;;;;;5108764;28;21048;-71
2021/09/08 01:07:11;;;;;;;41.83;26.20;;;;;;;;;;5108469;28;20019;-71
2021/09/08 01:09:37;;;;;;;43.83;26.35;;;;;;;;;;5084820;28;20023;-71
2021/09/08 01:12:03;;;;;;;42.83;27.02;;;;;;;;;;5101901;28;20023;-71
2021/09/08 01:14:29;;;;;;;41.70;25.13;;;;;;;;;;5106254;28;20034;-71
2021/09/08 01:16:57;;;;;;;41.30;25.88;;;;;;;;;;5088325;28;20027;-71
2021/09/08 01:19:24;;;;;;;45.78;26.20;;;;;;;;;;5108138;28;20020;-71
2021/09/08 01:21:50;;;;;;;41.67;27.42;;;;;;;;;;5109159;28;20043;-71
2021/09/08 01:24:17;;;;;;;41.15;26.25;;;;;;;;;;5110058;28;20062;-71
2021/09/08 01:26:44;;;;;;;37.38;25.10;;;;;;;;;;5107469;28;20020;-71
2021/09/08 01:29:10;;;;;;;40.85;25.15;;;;;;;;;;5110567;28;20508;-71
2021/09/08 01:31:37;;;;;;;40.45;26.23;;;;;;;;;;5090746;28;20123;-71
2021/09/08 01:34:04;;;;;;;41.70;25.90;;;;;;;;;;5112692;28;20038;-71
2021/09/08 01:36:36;;;;;;;42.83;27.30;;;;;;;;;;5093672;28;20555;-71
2021/09/08 01:39:03;;;;;;;44.85;28.05;;;;;;;;;;5113656;28;20046;-71
2021/09/08 01:41:29;;;;;;;42.15;25.95;;;;;;;;;;5111833;28;20030;-71
2021/09/08 01:43:55;;;;;;;43.53;26.65;;;;;;;;;;5111675;28;20055;-71
2021/09/08 01:46:21;;;;;;;36.03;23.73;;;;;;;;;;5111048;28;20019;-71
2021/09/08 01:48:48;;;;;;;42.33;26.60;;;;;;;;;;5108009;28;20024;-71
2021/09/08 01:51:14;;;;;;;42.50;26.52;;;;;;;;;;5104536;28;20103;-71
2021/09/08 01:53:41;;;;;;;43.75;28.33;;;;;;;;;;5107679;28;20039;-71
2021/09/08 01:56:07;;;;;;;42.88;26.90;;;;;;;;;;5111862;28;20026;-71
2021/09/08 01:58:33;;;;;;;45.25;26.65;;;;;;;;;;5113211;28;20027;-71
2021/09/08 02:00:59;;;;;;;41.63;27.80;;;;;;;;;;5111440;28;20020;-71
2021/09/08 02:03:25;;;;;;;45.63;27.52;;;;;;;;;;5110252;28;20028;-71
2021/09/08 02:05:51;;;;;;;39.53;25.27;;;;;;;;;;5112020;28;20591;-71
2021/09/08 02:08:17;;;;;;;43.47;26.15;;;;;;;;;;5112042;28;20031;-71
2021/09/08 02:10:43;;;;;;;43.00;27.70;;;;;;;;;;5112985;28;20034;-71
2021/09/08 02:13:09;;;;;;;45.35;27.65;;;;;;;;;;5112399;28;20024;-71
2021/09/08 02:15:36;;;;;;;43.47;27.02;;;;;;;;;;5112539;28;20023;-71
2021/09/08 02:18:02;;;;;;;45.50;28.75;;;;;;;;;;5110747;28;20027;-71
2021/09/08 02:20:28;;;;;;;46.75;28.30;;;;;;;;;;5111650;28;20020;-71
2021/09/08 02:22:54;;;;;;;43.85;28.05;;;;;;;;;;5112878;28;20024;-71
2021/09/08 02:25:20;;;;;;;52.03;29.83;;;;;;;;;;5094323;28;20062;-71
2021/09/08 02:27:46;;;;;;;45.83;29.15;;;;;;;;;;5110889;28;20027;-71
2021/09/08 02:30:12;;;;;;;47.83;30.20;;;;;;;;;;5109534;28;20108;-71
2021/09/08 02:32:39;;;;;;;48.53;29.55;;;;;;;;;;5089705;28;20116;-71
2021/09/08 02:35:06;;;;;;;50.60;32.88;;;;;;;;;;5103856;28;20035;-71
2021/09/08 02:37:32;;;;;;;50.47;32.35;;;;;;;;;;5110105;28;20027;-71
2021/09/08 02:39:58;;;;;;;49.42;30.10;;;;;;;;;;5088543;28;20069;-71
2021/09/08 02:42:24;;;;;;;45.13;30.20;;;;;;;;;;5109212;28;20039;-71
2021/09/08 02:44:50;;;;;;;57.83;32.83;;;;;;;;;;5106066;28;20494;-71
2021/09/08 02:47:16;;;;;;;51.38;32.53;;;;;;;;;;5101565;28;20031;-71
2021/09/08 02:49:43;;;;;;;48.53;29.55;;;;;;;;;;5106303;28;20028;-71
2021/09/08 02:52:09;;;;;;;57.60;34.30;;;;;;;;;;5110127;28;20033;-71
2021/09/08 02:54:35;;;;;;;51.13;30.88;;;;;;;;;;5112335;28;20031;-71
2021/09/08 02:57:02;;;;;;;47.63;30.95;;;;;;;;;;5110403;28;20054;-71
2021/09/08 02:59:28;;;;;;;50.78;30.77;;;;;;;;;;5111834;28;20031;-71
2021/09/08 03:01:54;;;;;;;55.58;31.83;;;;;;;;;;5106104;28;20038;-71
2021/09/08 03:04:20;;;;;;;50.83;32.35;;;;;;;;;;5090156;28;20024;-71
2021/09/08 03:06:48;;;;;;;58.03;34.00;;;;;;;;;;5103334;28;20024;-71
2021/09/08 03:09:15;;;;;;;52.22;30.88;;;;;;;;;;5109584;28;20028;-71
2021/09/08 03:11:41;;;;;;;55.75;33.85;;;;;;;;;;5112005;28;20035;-71
2021/09/08 03:14:07;;;;;;;51.22;32.42;;;;;;;;;;5101990;28;20682;-71
2021/09/08 03:16:33;;;;;;;54.55;34.45;;;;;;;;;;5103629;28;20007;-71
2021/09/08 03:18:59;;;;;;;53.85;31.95;;;;;;;;;;5111376;28;20035;-71
2021/09/08 03:21:25;;;;;;;56.63;34.65;;;;;;;;;;5097941;28;20020;-71
2021/09/08 03:23:51;;;;;;;52.38;33.53;;;;;;;;;;5108200;28;20047;-71
2021/09/08 03:26:17;;;;;;;53.50;34.53;;;;;;;;;;5090109;28;20016;-71
2021/09/08 03:28:43;;;;;;;58.58;34.28;;;;;;;;;;5110928;28;20036;-71
2021/09/08 03:31:09;;;;;;;54.78;34.65;;;;;;;;;;5107013;28;20035;-71
2021/09/08 03:33:35;;;;;;;61.63;38.55;;;;;;;;;;5106286;28;20020;-71
2021/09/08 03:36:01;;;;;;;63.05;37.33;;;;;;;;;;5081919;28;20100;-71
2021/09/08 03:38:27;;;;;;;58.08;36.80;;;;;;;;;;5092321;28;20405;-71
2021/09/08 03:40:53;;;;;;;56.83;34.30;;;;;;;;;;5111705;28;20024;-71
2021/09/08 03:43:20;;;;;;;59.83;34.78;;;;;;;;;;5105372;28;20485;-71
2021/09/08 03:45:46;;;;;;;51.95;32.15;;;;;;;;;;5109102;28;20081;-71
2021/09/08 03:48:12;;;;;;;61.08;37.50;;;;;;;;;;5091524;28;20027;-71
2021/09/08 03:50:38;;;;;;;56.75;34.72;;;;;;;;;;5110657;28;20032;-71
2021/09/08 03:53:04;;;;;;;57.35;35.72;;;;;;;;;;5109015;28;20073;-71
2021/09/08 03:55:30;;;;;;;57.45;35.17;;;;;;;;;;5110570;28;20043;-71
2021/09/08 03:57:56;;;;;;;53.45;33.80;;;;;;;;;;5109366;28;20123;-71
2021/09/08 04:00:23;;;;;;;60.42;36.20;;;;;;;;;;5111263;28;20511;-71
2021/09/08 04:02:49;;;;;;;56.28;35.47;;;;;;;;;;5106541;28;20077;-71
2021/09/08 04:05:15;;;;;;;53.53;33.92;;;;;;;;;;5091708;28;20516;-71
2021/09/08 04:07:41;;;;;;;54.55;33.53;;;;;;;;;;5109550;28;20030;-71
2021/09/08 04:10:07;;;;;;;52.22;32.55;;;;;;;;;;5110178;28;20058;-71
2021/09/08 04:12:33;;;;;;;58.42;33.67;;;;;;;;;;5110814;28;20031;-71
2021/09/08 04:14:59;;;;;;;59.92;35.15;;;;;;;;;;5110131;28;20035;-71
2021/09/08 04:17:25;;;;;;;58.35;36.38;;;;;;;;;;5109246;28;20030;-71
2021/09/08 04:19:51;;;;;;;55.00;34.63;;;;;;;;;;5110707;28;20035;-71
2021/09/08 04:22:17;;;;;;;55.80;34.22;;;;;;;;;;5108436;28;20028;-71
2021/09/08 04:24:44;;;;;;;59.67;34.67;;;;;;;;;;5109302;28;20106;-71
2021/09/08 04:27:10;;;;;;;57.80;34.03;;;;;;;;;;5109689;28;20088;-71
2021/09/08 04:29:36;;;;;;;56.13;34.65;;;;;;;;;;5111118;28;20027;-71
2021/09/08 04:32:03;;;;;;;58.20;34.97;;;;;;;;;;5088160;28;20072;-71
2021/09/08 04:34:29;;;;;;;56.33;33.95;;;;;;;;;;5090740;28;20035;-71
2021/09/08 04:36:55;;;;;;;58.83;35.65;;;;;;;;;;5107472;28;20106;-71
2021/09/08 04:39:21;;;;;;;56.72;34.40;;;;;;;;;;5108168;28;20107;-71
2021/09/08 04:41:47;;;;;;;59.08;34.25;;;;;;;;;;5106380;28;20130;-71
2021/09/08 04:44:13;;;;;;;61.38;36.05;;;;;;;;;;5105327;28;20540;-71
2021/09/08 04:46:39;;;;;;;61.15;37.80;;;;;;;;;;5107525;28;20027;-71
2021/09/08 04:49:05;;;;;;;61.55;38.00;;;;;;;;;;5109050;28;20016;-71
2021/09/08 04:51:31;;;;;;;62.63;37.72;;;;;;;;;;5090196;28;20024;-71
2021/09/08 04:53:57;;;;;;;55.00;35.05;;;;;;;;;;5107772;28;20032;-71
2021/09/08 04:56:23;;;;;;;61.28;36.75;;;;;;;;;;5107357;28;20031;-71
2021/09/08 04:58:49;;;;;;;57.10;36.10;;;;;;;;;;5109346;28;20011;-71
2021/09/08 05:01:15;;;;;;;59.75;37.00;;;;;;;;;;5109383;28;20185;-71
2021/09/08 05:03:41;;;;;;;65.60;39.47;;;;;;;;;;5108120;28;20504;-70
2021/09/08 05:06:07;;;;;;;57.33;35.45;;;;;;;;;;5088215;28;20043;-71
2021/09/08 05:08:33;;;;;;;60.42;36.47;;;;;;;;;;5112450;28;20023;-71
2021/09/08 05:10:59;;;;;;;63.05;37.08;;;;;;;;;;5112390;28;20028;-70
2021/09/08 05:13:26;;;;;;;58.42;36.85;;;;;;;;;;5113465;28;20073;-70
2021/09/08 05:15:52;;;;;;;65.18;36.45;;;;;;;;;;5111714;28;20382;-71
2021/09/08 05:18:18;;;;;;;66.90;38.83;;;;;;;;;;5111426;28;20027;-71
2021/09/08 05:20:44;;;;;;;67.57;41.58;;;;;;;;;;5113246;28;20027;-71
2021/09/08 05:23:10;;;;;;;67.20;39.13;;;;;;;;;;5110827;28;20031;-71
2021/09/08 05:25:36;;;;;;;62.10;40.88;;;;;;;;;;5104770;28;20024;-71
2021/09/08 05:28:02;;;;;;;65.63;41.42;;;;;;;;;;5095577;28;20027;-70
2021/09/08 05:30:28;;;;;;;70.90;43.20;;;;;;;;;;5112740;28;20019;-70
2021/09/08 05:32:54;;;;;;;75.38;41.30;;;;;;;;;;5100362;28;20042;-69
2021/09/08 05:35:20;;;;;;;67.38;39.85;;;;;;;;;;5112262;28;20020;-69
2021/09/08 05:37:46;;;;;;;66.57;40.03;;;;;;;;;;5110561;28;20034;-69
2021/09/08 05:40:12;;;;;;;71.82;42.28;;;;;;;;;;5113072;28;20408;-69
2021/09/08 05:42:39;;;;;;;65.97;40.40;;;;;;;;;;5114433;27;20034;-70
2021/09/08 05:45:05;;;;;;;69.95;43.42;;;;;;;;;;5093603;28;20016;-70
2021/09/08 05:47:31;;;;;;;66.28;41.42;;;;;;;;;;5110235;28;20039;-69
2021/09/08 05:49:57;;;;;;;66.97;41.13;;;;;;;;;;5093247;28;20031;-69
2021/09/08 05:52:23;;;;;;;76.40;44.45;;;;;;;;;;5110552;27;20714;-70
2021/09/08 05:54:49;;;;;;;69.65;42.83;;;;;;;;;;5091708;28;20591;-69
2021/09/08 05:57:15;;;;;;;62.90;39.53;;;;;;;;;;5111159;27;20469;-69
2021/09/08 05:59:41;;;;;;;65.72;41.00;;;;;;;;;;5110011;28;20047;-70
2021/09/08 06:02:07;;;;;;;69.60;41.30;;;;;;;;;;5112033;28;20035;-70
2021/09/08 06:04:33;;;;;;;73.63;42.95;;;;;;;;;;5103327;28;20032;-70
2021/09/08 06:06:59;;;;;;;64.45;40.30;;;;;;;;;;5089703;28;20106;-70
2021/09/08 06:09:25;;;;;;;71.90;44.00;;;;;;;;;;5109716;28;20024;-69
2021/09/08 06:11:56;;;;;;;69.95;41.60;;;;;;;;;;5111292;28;20055;-69
2021/09/08 06:14:22;;;;;;;69.40;41.50;;;;;;;;;;5108818;28;20119;-68
2021/09/08 06:16:48;;;;;;;60.65;38.17;;;;;;;;;;5106349;27;20508;-68
2021/09/08 06:19:14;;;;;;;68.28;42.40;;;;;;;;;;5109240;28;20055;-68
2021/09/08 06:21:40;;;;;;;65.10;38.70;;;;;;;;;;5110188;28;20031;-69
2021/09/08 06:24:06;;;;;;;63.85;38.03;;;;;;;;;;5107844;28;20032;-68
2021/09/08 06:26:32;;;;;;;64.13;39.78;;;;;;;;;;5097434;28;20034;-68
2021/09/08 06:28:58;;;;;;;70.50;40.47;;;;;;;;;;5112500;28;20032;-68
2021/09/08 06:31:24;;;;;;;67.28;39.80;;;;;;;;;;5112683;28;20102;-68
2021/09/08 06:33:50;;;;;;;65.55;39.58;;;;;;;;;;5111896;28;20131;-69
2021/09/08 06:36:17;;;;;;;66.22;41.20;;;;;;;;;;5109012;28;20069;-69
2021/09/08 06:38:43;;;;;;;67.32;41.25;;;;;;;;;;5112596;28;20133;-68
2021/09/08 06:41:09;;;;;;;59.88;38.45;;;;;;;;;;5112494;28;20046;-69
2021/09/08 06:43:35;;;;;;;70.05;42.45;;;;;;;;;;5111404;28;20110;-68
2021/09/08 06:46:01;;;;;;;64.28;40.03;;;;;;;;;;5107228;28;20552;-69
2021/09/08 06:48:27;;;;;;;70.25;42.20;;;;;;;;;;5107614;28;20137;-69
2021/09/08 06:50:53;;;;;;;64.35;39.28;;;;;;;;;;5087209;28;20111;-69
2021/09/08 06:53:19;;;;;;;65.90;40.92;;;;;;;;;;5102147;28;20127;-69
2021/09/08 06:55:45;;;;;;;64.68;42.03;;;;;;;;;;5111038;28;20131;-69
2021/09/08 06:58:12;;;;;;;68.53;41.47;;;;;;;;;;5104631;28;20089;-69
2021/09/08 07:00:38;;;;;;;65.80;39.08;;;;;;;;;;5108916;28;20076;-69
2021/09/08 07:03:04;;;;;;;62.50;40.50;;;;;;;;;;5111303;28;20031;-70
2021/09/08 07:05:30;;;;;;;63.35;41.72;;;;;;;;;;5111641;28;20034;-69
2021/09/08 07:07:56;;;;;;;65.20;39.92;;;;;;;;;;5109190;28;20023;-69
2021/09/08 07:10:23;;;;;;;58.60;37.05;;;;;;;;;;5110092;28;20023;-68
2021/09/08 07:12:49;;;;;;;59.55;37.78;;;;;;;;;;5109411;28;20027;-69
2021/09/08 07:15:15;;;;;;;60.40;38.88;;;;;;;;;;5110775;28;20042;-69
2021/09/08 07:17:41;;;;;;;62.65;38.60;;;;;;;;;;5106441;28;20028;-70
2021/09/08 07:20:08;;;;;;;52.53;35.95;;;;;;;;;;5092502;28;20077;-70
2021/09/08 07:22:34;;;;;;;58.17;36.92;;;;;;;;;;5111498;28;20053;-69
2021/09/08 07:25:00;;;;;;;58.55;35.55;;;;;;;;;;5111147;28;20031;-69
2021/09/08 07:27:26;;;;;;;52.22;35.55;;;;;;;;;;5106401;28;20023;-69
2021/09/08 07:29:53;;;;;;;53.45;34.72;;;;;;;;;;5110021;28;20102;-69
2021/09/08 07:32:19;;;;;;;50.97;34.17;;;;;;;;;;5109709;28;20028;-69
2021/09/08 07:34:45;;;;;;;51.10;32.33;;;;;;;;;;5110046;28;20035;-70
2021/09/08 07:37:11;;;;;;;48.30;33.58;;;;;;;;;;5108976;28;20069;-70
2021/09/08 07:39:37;;;;;;;54.33;36.45;;;;;;;;;;5111410;28;20035;-69
2021/09/08 07:42:03;;;;;;;47.05;33.72;;;;;;;;;;5110280;28;20024;-69
2021/09/08 07:44:29;;;;;;;52.97;33.30;;;;;;;;;;5092666;28;20753;-70
2021/09/08 07:46:56;;;;;;;50.78;32.55;;;;;;;;;;5110296;28;20027;-68
2021/09/08 07:49:22;;;;;;;49.70;32.25;;;;;;;;;;5111684;28;20035;-70
2021/09/08 07:51:48;;;;;;;48.38;32.08;;;;;;;;;;5109176;28;20076;-70
2021/09/08 07:54:14;;;;;;;47.65;33.47;;;;;;;;;;5092656;28;20047;-69
2021/09/08 07:56:40;;;;;;;43.53;29.88;;;;;;;;;;5109147;28;20031;-69
2021/09/08 07:59:07;;;;;;;46.38;29.05;;;;;;;;;;5111021;28;20028;-69
2021/09/08 08:01:34;;;;;;;45.53;30.15;;;;;;;;;;5110245;28;20019;-70
2021/09/08 08:04:01;;;;;;;45.30;29.30;;;;;;;;;;5107811;28;20046;-70
2021/09/08 08:06:27;;;;;;;38.05;27.85;;;;;;;;;;5110278;28;20024;-70
2021/09/08 08:08:53;;;;;;;40.20;28.65;;;;;;;;;;5111250;28;20035;-70
2021/09/08 08:11:19;;;;;;;44.25;27.20;;;;;;;;;;5110876;28;20114;-70
2021/09/08 08:13:47;;;;;;;41.78;27.98;;;;;;;;;;5094449;28;20519;-70
2021/09/08 08:16:14;;;;;;;38.42;26.00;;;;;;;;;;5110479;28;20295;-70
2021/09/08 08:18:40;;;;;;;35.83;24.75;;;;;;;;;;5109144;28;20477;-68
2021/09/08 08:21:06;;;;;;;39.10;25.42;;;;;;;;;;5107476;28;20039;-68
2021/09/08 08:23:32;;;;;;;39.55;25.52;;;;;;;;;;5108675;28;20775;-70
2021/09/08 08:25:58;;;;;;;40.22;25.98;;;;;;;;;;5105311;28;20038;-68
2021/09/08 08:28:24;;;;;;;36.88;24.40;;;;;;;;;;5088605;28;20398;-69
2021/09/08 08:30:52;;;;;;;36.05;24.05;;;;;;;;;;5099893;28;20027;-70
2021/09/08 08:33:18;;;;;;;32.97;22.08;;;;;;;;;;5108494;28;20485;-69
2021/09/08 08:35:44;;;;;;;36.08;23.42;;;;;;;;;;5104134;28;20111;-70
2021/09/08 08:38:10;;;;;;;34.42;23.42;;;;;;;;;;5105538;28;20031;-70
2021/09/08 08:40:36;;;;;;;36.10;23.02;;;;;;;;;;5110428;28;20031;-70
2021/09/08 08:43:02;;;;;;;30.27;21.23;;;;;;;;;;5091191;28;20034;-70
2021/09/08 08:45:30;;;;;;;29.02;21.30;;;;;;;;;;5110174;28;20023;-70
2021/09/08 08:47:57;;;;;;;31.08;20.48;;;;;;;;;;5112476;28;20023;-70
2021/09/08 08:50:26;;;;;;;33.78;21.60;;;;;;;;;;5111277;28;20031;-70
2021/09/08 08:52:52;;;;;;;29.70;21.17;;;;;;;;;;5111963;28;20032;-70
2021/09/08 08:55:18;;;;;;;34.42;19.05;;;;;;;;;;5113545;28;20023;-70
2021/09/08 08:57:48;;;;;;;30.58;19.95;;;;;;;;;;5110484;28;20032;-70
2021/09/08 09:00:15;;;;;;;27.02;19.17;;;;;;;;;;5110744;28;20036;-69
2021/09/08 09:02:44;;;;;;;28.20;19.55;;;;;;;;;;5110437;28;20027;-70
2021/09/08 09:05:10;;;;;;;27.10;18.23;;;;;;;;;;5109507;28;20046;-70
2021/09/08 09:07:42;;;;;;;24.27;16.30;;;;;;;;;;5109713;28;20028;-70
2021/09/08 09:10:09;;;;;;;28.92;17.23;;;;;;;;;;5088855;28;20023;-70
2021/09/08 09:12:38;;;;;;;28.75;17.98;;;;;;;;;;5109537;28;20489;-70
2021/09/08 09:15:05;;;;;;;27.58;18.75;;;;;;;;;;5108688;28;20505;-71
2021/09/08 09:17:33;;;;;;;24.85;16.58;;;;;;;;;;5110553;27;20042;-70
2021/09/08 09:20:02;;;;;;;26.27;16.92;;;;;;;;;;5113709;28;20032;-70
2021/09/08 09:22:40;;;;;;;30.55;18.30;;;;;;;;;;5094467;28;20035;-70
2021/09/08 09:25:07;;;;;;;28.50;18.02;;;;;;;;;;5112206;28;20080;-70
2021/09/08 09:27:47;;;;;;;26.80;18.73;;;;;;;;;;5111246;28;20508;-70
2021/09/08 09:30:14;;;;;;;27.73;19.42;;;;;;;;;;5108282;28;20019;-69
2021/09/08 09:32:42;;;;;;;25.80;17.33;;;;;;;;;;5110028;27;20031;-70
2021/09/08 09:35:10;;;;;;;30.48;18.90;;;;;;;;;;5109431;28;20028;-70
2021/09/08 09:37:41;;;;;;;29.25;17.42;;;;;;;;;;5108324;28;20028;-71
2021/09/08 09:40:07;;;;;;;30.88;18.25;;;;;;;;;;5094609;28;20019;-70
2021/09/08 09:42:33;;;;;;;28.17;19.08;;;;;;;;;;5114017;28;20059;-70
2021/09/08 09:45:00;;;;;;;26.02;17.42;;;;;;;;;;5113392;28;20034;-70
2021/09/08 09:47:27;;;;;;;26.05;17.77;;;;;;;;;;5112585;28;20023;-70
2021/09/08 09:49:55;;;;;;;29.00;18.88;;;;;;;;;;5108985;28;20084;-70
2021/09/08 09:52:23;;;;;;;25.13;17.42;;;;;;;;;;5110136;28;20076;-70
2021/09/08 09:54:49;;;;;;;23.13;15.20;;;;;;;;;;5092477;28;20036;-70
2021/09/08 09:57:15;;;;;;;29.02;19.35;;;;;;;;;;5111636;28;20073;-70
2021/09/08 09:59:43;;;;;;;27.25;17.92;;;;;;;;;;5111428;28;20111;-70
2021/09/08 10:02:09;;;;;;;24.67;16.65;;;;;;;;;;5112417;28;20173;-70
2021/09/08 10:04:35;;;;;;;26.00;16.70;;;;;;;;;;5113058;28;20028;-71
2021/09/08 10:07:03;;;;;;;24.70;16.20;;;;;;;;;;5110987;28;20035;-70
2021/09/08 10:09:29;;;;;;;25.88;17.38;;;;;;;;;;5093997;28;20106;-71
2021/09/08 10:11:56;;;;;;;23.08;15.98;;;;;;;;;;5112177;28;20042;-70
2021/09/08 10:14:24;;;;;;;28.50;17.50;;;;;;;;;;5110376;28;20193;-70
2021/09/08 10:16:51;;;;;;;28.92;19.73;;;;;;;;;;5117895;27;20621;-70
2021/09/08 10:19:26;;;;;;;26.83;17.23;;;;;;;;;;5116558;27;20039;-69
2021/09/08 10:21:53;;;;;;;26.52;17.60;;;;;;;;;;5089040;28;20080;-70
2021/09/08 10:24:20;;;;;;;27.23;17.52;;;;;;;;;;5108469;28;20032;-71
2021/09/08 10:26:47;;;;;;;26.52;16.73;;;;;;;;;;5108949;28;20536;-70
2021/09/08 10:29:15;;;;;;;31.02;19.35;;;;;;;;;;5111416;28;20047;-70
2021/09/08 10:31:43;;;;;;;26.00;15.50;;;;;;;;;;5110734;28;20106;-70
2021/09/08 10:34:11;;;;;;;23.55;16.40;;;;;;;;;;5093550;28;20024;-70
2021/09/08 10:36:39;;;;;;;24.20;15.60;;;;;;;;;;5111519;28;20031;-71
2021/09/08 10:39:13;;;;;;;28.75;17.88;;;;;;;;;;5103609;28;20020;-70
2021/09/08 10:41:40;;;;;;;26.50;16.70;;;;;;;;;;5112144;28;20031;-70
2021/09/08 10:44:06;;;;;;;27.25;16.45;;;;;;;;;;5107686;28;20409;-70
2021/09/08 10:46:47;;;;;;;29.60;20.05;;;;;;;;;;5096203;28;20034;-70
2021/09/08 10:49:33;;;;;;;24.80;17.15;;;;;;;;;;5112213;28;20138;-70
2021/09/08 10:51:59;;;;;;;30.05;20.50;;;;;;;;;;5111288;28;20019;-70
2021/09/08 10:54:25;;;;;;;24.98;15.88;;;;;;;;;;5093528;28;20066;-70
2021/09/08 10:56:52;;;;;;;23.02;14.93;;;;;;;;;;5110829;28;20034;-70
2021/09/08 10:59:18;;;;;;;29.52;16.85;;;;;;;;;;5091936;28;20454;-70
2021/09/08 11:01:44;;;;;;;19.88;14.55;;;;;;;;;;5109705;28;20020;-70
2021/09/08 11:04:14;;;;;;;23.30;15.45;;;;;;;;;;5111928;28;20107;-70
2021/09/08 11:06:43;;;;;;;20.25;13.93;;;;;;;;;;5108978;28;20099;-70
2021/09/08 11:09:10;;;;;;;25.45;16.70;;;;;;;;;;5109441;28;20016;-71
2021/09/08 11:11:52;;;;;;;20.13;13.85;;;;;;;;;;5111457;28;20011;-71
2021/09/08 11:14:18;;;;;;;22.73;15.85;;;;;;;;;;5111112;28;20024;-70
2021/09/08 11:16:44;;;;;;;25.52;13.88;;;;;;;;;;5092396;28;20030;-70
2021/09/08 11:19:12;;;;;;;18.13;13.65;;;;;;;;;;5111059;28;20100;-70
2021/09/08 11:21:38;;;;;;;20.17;14.23;;;;;;;;;;5111308;28;20050;-70
2021/09/08 11:24:07;;;;;;;26.67;15.80;;;;;;;;;;5089236;28;20577;-70
2021/09/08 11:26:34;;;;;;;20.40;14.40;;;;;;;;;;5106070;28;20015;-71
2021/09/08 11:29:02;;;;;;;21.08;14.73;;;;;;;;;;5089742;28;20034;-69
2021/09/08 11:31:42;;;;;;;21.45;13.32;;;;;;;;;;5092131;28;20393;-71
2021/09/08 11:34:22;;;;;;;19.88;14.10;;;;;;;;;;5108999;28;20103;-71
2021/09/08 11:36:54;;;;;;;22.83;15.15;;;;;;;;;;5108918;28;20123;-71
2021/09/08 11:39:21;;;;;;;27.38;13.70;;;;;;;;;;5108691;28;20027;-71
2021/09/08 11:42:03;;;;;;;21.63;14.48;;;;;;;;;;5108268;28;20028;-71
2021/09/08 11:44:29;;;;;;;18.42;13.65;;;;;;;;;;5107521;28;20020;-71
2021/09/08 11:46:56;;;;;;;18.25;13.23;;;;;;;;;;5088863;28;20028;-71
2021/09/08 11:49:22;;;;;;;19.67;13.93;;;;;;;;;;5110573;28;20469;-70
2021/09/08 11:51:48;;;;;;;17.70;13.10;;;;;;;;;;5091248;28;20024;-70
2021/09/08 11:54:15;;;;;;;17.60;13.30;;;;;;;;;;5109574;28;20107;-70
2021/09/08 11:56:41;;;;;;;17.00;13.10;;;;;;;;;;5108255;28;20050;-70
2021/09/08 11:59:08;;;;;;;18.67;13.55;;;;;;;;;;5108105;28;20015;-69
2021/09/08 12:01:37;;;;;;;16.15;12.85;;;;;;;;;;5099723;28;20560;-70
2021/09/08 12:04:04;;;;;;;15.82;10.95;;;;;;;;;;5102030;28;20092;-71
2021/09/08 12:06:31;;;;;;;15.45;11.18;;;;;;;;;;5102645;28;20557;-70
2021/09/08 12:09:10;;;;;;;16.40;11.68;;;;;;;;;;5107875;28;20019;-69
2021/09/08 12:11:36;;;;;;;13.10;11.00;;;;;;;;;;5089724;28;20015;-70
2021/09/08 12:14:21;;;;;;;15.77;12.55;;;;;;;;;;5104395;28;20481;-71
2021/09/08 12:16:47;;;;;;;13.43;11.55;;;;;;;;;;5103677;28;20481;-70
2021/09/08 12:19:14;;;;;;;15.18;12.88;;;;;;;;;;5107380;28;20452;-72
2021/09/08 12:21:40;;;;;;;14.88;11.60;;;;;;;;;;5107160;28;20482;-71
2021/09/08 12:24:42;;;;;;;16.40;12.73;;;;;;;;;;5105771;28;20020;-71
2021/09/08 12:27:27;;;;;;;14.48;12.30;;;;;;;;;;5018221;28;20030;-70
2021/09/08 12:29:54;;;;;;;16.30;13.70;;;;;;;;;;5096729;28;20037;-70
2021/09/08 12:32:20;;;;;;;16.20;14.25;;;;;;;;;;5107210;28;20043;-71
2021/09/08 12:34:47;;;;;;;14.52;11.60;;;;;;;;;;5103781;28;20028;-71
2021/09/08 12:37:13;;;;;;;16.98;13.40;;;;;;;;;;5104712;28;20038;-71
2021/09/08 12:39:47;;;;;;;15.18;12.55;;;;;;;;;;5103565;28;20032;-71
2021/09/08 12:42:23;;;;;;;15.55;13.35;;;;;;;;;;5103050;28;20036;-70
2021/09/08 12:44:50;;;;;;;15.82;14.05;;;;;;;;;;5104141;28;20024;-71
2021/09/08 12:47:22;;;;;;;17.08;12.48;;;;;;;;;;5100938;28;20564;-71
2021/09/08 12:49:50;;;;;;;17.13;14.73;;;;;;;;;;5105848;28;20023;-69
2021/09/08 12:52:17;;;;;;;16.00;14.30;;;;;;;;;;5105594;28;20044;-70
2021/09/08 12:54:43;;;;;;;17.00;13.45;;;;;;;;;;5104489;28;20039;-71
2021/09/08 12:57:10;;;;;;;17.92;16.13;;;;;;;;;;5108160;28;20027;-71
2021/09/08 12:59:36;;;;;;;16.50;14.48;;;;;;;;;;5090411;28;20409;-70
2021/09/08 13:02:07;;;;;;;18.90;14.88;;;;;;;;;;5105278;28;20027;-71
2021/09/08 13:04:33;;;;;;;15.18;13.23;;;;;;;;;;5108284;28;20035;-72
2021/09/08 13:07:00;;;;;;;17.42;14.65;;;;;;;;;;5084010;28;20474;-72
2021/09/08 13:09:28;;;;;;;18.08;15.77;;;;;;;;;;5090816;28;20449;-71
2021/09/08 13:11:54;;;;;;;16.33;14.73;;;;;;;;;;5110153;28;20115;-72
2021/09/08 13:14:20;;;;;;;17.88;16.08;;;;;;;;;;5103513;28;20111;-71
2021/09/08 13:16:47;;;;;;;18.23;16.33;;;;;;;;;;5107286;28;20020;-71
2021/09/08 13:19:13;;;;;;;16.85;15.13;;;;;;;;;;5090705;28;20046;-71
2021/09/08 13:21:40;;;;;;;17.23;15.43;;;;;;;;;;5105672;28;20012;-73
2021/09/08 13:24:06;;;;;;;19.48;14.88;;;;;;;;;;5108889;28;20023;-71
2021/09/08 13:26:32;;;;;;;16.67;15.10;;;;;;;;;;5110386;28;20031;-71
2021/09/08 13:28:58;;;;;;;17.45;15.75;;;;;;;;;;5109678;28;20024;-71
2021/09/08 13:31:25;;;;;;;19.50;17.65;;;;;;;;;;5108429;28;20024;-71
2021/09/08 13:33:51;;;;;;;20.70;17.33;;;;;;;;;;5111698;28;20024;-71
2021/09/08 13:36:17;;;;;;;20.10;17.83;;;;;;;;;;5109718;28;20544;-71
2021/09/08 13:38:43;;;;;;;18.40;16.50;;;;;;;;;;5108334;28;20451;-71
2021/09/08 13:41:11;;;;;;;18.50;16.27;;;;;;;;;;5106463;28;20039;-72
2021/09/08 13:43:38;;;;;;;19.00;17.13;;;;;;;;;;5106154;28;20294;-71
2021/09/08 13:46:05;;;;;;;16.80;15.20;;;;;;;;;;5107214;28;20036;-71
2021/09/08 13:48:31;;;;;;;18.10;16.30;;;;;;;;;;5088162;28;20098;-71
2021/09/08 13:50:57;;;;;;;19.30;16.42;;;;;;;;;;5111787;28;20020;-71
2021/09/08 13:53:23;;;;;;;17.55;15.70;;;;;;;;;;5092354;28;20535;-71
2021/09/08 13:55:49;;;;;;;19.10;17.27;;;;;;;;;;5101613;28;20054;-72
2021/09/08 13:58:15;;;;;;;20.02;17.77;;;;;;;;;;5090372;28;20036;-71
2021/09/08 14:00:41;;;;;;;19.58;17.75;;;;;;;;;;5103900;28;20047;-72
2021/09/08 14:03:07;;;;;;;19.08;17.08;;;;;;;;;;5107644;28;20016;-72
2021/09/08 14:05:33;;;;;;;19.00;16.95;;;;;;;;;;5112485;28;20432;-71
2021/09/08 14:08:00;;;;;;;17.90;16.20;;;;;;;;;;5100764;28;20039;-72
2021/09/08 14:10:27;;;;;;;19.02;17.33;;;;;;;;;;5108645;28;20042;-72
2021/09/08 14:12:54;;;;;;;18.23;16.42;;;;;;;;;;5106107;28;20392;-72
2021/09/08 14:15:20;;;;;;;20.60;16.77;;;;;;;;;;5104762;28;20028;-70